sensor_id;sensor_type;location;lat;lon;timestamp;P1;durP1;ratioP1;P2;durP2;ratioP2
38591;SDS011;24356;48.460;11.450;2023-05-16T00:01:34;8.23;;;4.75;;
38591;SDS011;24356;48.460;11.450;2023-05-16T00:04:01;5.97;;;3.97;;
38591;SDS011;24356;48.460;11.450;2023-05-16T00:06:28;6.70;;;4.57;;
38591;SDS011;24356;48.460;11.450;2023-05-16T00:08:54;6.05;;;4.15;;
38591;SDS011;24356;48.460;11.450;2023-05-16T00:11:19;5.32;;;4.22;;
38591;SDS011;24356;48.460;11.450;2023-05-16T00:13:45;7.68;;;4.95;;
38591;SDS011;24356;48.460;11.450;2023-05-16T00:16:11;6.10;;;4.88;;
38591;SDS011;24356;48.460;11.450;2023-05-16T00:18:38;5.15;;;4.60;;
38591;SDS011;24356;48.460;11.450;2023-05-16T00:21:04;7.78;;;4.68;;
38591;SDS011;24356;48.460;11.450;2023-05-16T00:23:30;7.57;;;4.68;;
38591;SDS011;24356;48.460;11.450;2023-05-16T00:25:56;5.60;;;4.22;;
38591;SDS011;24356;48.460;11.450;2023-05-16T00:28:22;7.53;;;4.40;;
38591;SDS011;24356;48.460;11.450;2023-05-16T00:30:47;6.13;;;4.60;;
38591;SDS011;24356;48.460;11.450;2023-05-16T00:33:13;7.28;;;4.85;;
38591;SDS011;24356;48.460;11.450;2023-05-16T00:35:39;12.18;;;6.15;;
38591;SDS011;24356;48.460;11.450;2023-05-16T00:38:06;6.38;;;4.47;;
38591;SDS011;24356;48.460;11.450;2023-05-16T00:40:31;9.13;;;5.60;;
38591;SDS011;24356;48.460;11.450;2023-05-16T00:42:57;8.48;;;4.97;;
38591;SDS011;24356;48.460;11.450;2023-05-16T00:45:23;7.47;;;5.88;;
38591;SDS011;24356;48.460;11.450;2023-05-16T00:47:49;7.25;;;5.68;;
38591;SDS011;24356;48.460;11.450;2023-05-16T00:50:15;9.38;;;5.15;;
38591;SDS011;24356;48.460;11.450;2023-05-16T00:52:42;5.78;;;4.97;;
38591;SDS011;24356;48.460;11.450;2023-05-16T00:55:08;10.30;;;7.10;;
38591;SDS011;24356;48.460;11.450;2023-05-16T00:57:36;8.38;;;4.97;;
38591;SDS011;24356;48.460;11.450;2023-05-16T01:00:07;5.93;;;5.03;;
38591;SDS011;24356;48.460;11.450;2023-05-16T01:02:36;7.47;;;5.60;;
38591;SDS011;24356;48.460;11.450;2023-05-16T01:05:03;10.00;;;5.95;;
38591;SDS011;24356;48.460;11.450;2023-05-16T01:07:32;9.68;;;7.13;;
38591;SDS011;24356;48.460;11.450;2023-05-16T01:09:59;9.10;;;6.43;;
38591;SDS011;24356;48.460;11.450;2023-05-16T01:12:28;8.63;;;5.80;;
38591;SDS011;24356;48.460;11.450;2023-05-16T01:15:35;9.20;;;5.80;;
38591;SDS011;24356;48.460;11.450;2023-05-16T01:21:35;8.82;;;5.57;;
38591;SDS011;24356;48.460;11.450;2023-05-16T01:24:13;8.38;;;6.47;;
38591;SDS011;24356;48.460;11.450;2023-05-16T01:26:48;6.30;;;4.95;;
38591;SDS011;24356;48.460;11.450;2023-05-16T01:29:16;8.88;;;5.90;;
38591;SDS011;24356;48.460;11.450;2023-05-16T01:31:43;11.25;;;5.97;;
38591;SDS011;24356;48.460;11.450;2023-05-16T01:34:09;8.60;;;5.75;;
38591;SDS011;24356;48.460;11.450;2023-05-16T01:36:43;9.90;;;5.82;;
38591;SDS011;24356;48.460;11.450;2023-05-16T01:39:29;9.90;;;5.45;;
38591;SDS011;24356;48.460;11.450;2023-05-16T01:42:02;8.43;;;6.15;;
38591;SDS011;24356;48.460;11.450;2023-05-16T01:47:39;7.15;;;5.78;;
38591;SDS011;24356;48.460;11.450;2023-05-16T01:50:15;9.25;;;5.68;;
38591;SDS011;24356;48.460;11.450;2023-05-16T01:52:57;8.27;;;6.40;;
38591;SDS011;24356;48.460;11.450;2023-05-16T01:57:59;8.68;;;5.95;;
38591;SDS011;24356;48.460;11.450;2023-05-16T02:00:28;8.23;;;5.72;;
38591;SDS011;24356;48.460;11.450;2023-05-16T02:02:54;8.20;;;5.80;;
38591;SDS011;24356;48.460;11.450;2023-05-16T02:05:20;11.93;;;6.82;;
38591;SDS011;24356;48.460;11.450;2023-05-16T02:07:46;9.30;;;5.95;;
38591;SDS011;24356;48.460;11.450;2023-05-16T02:10:11;7.30;;;5.80;;
38591;SDS011;24356;48.460;11.450;2023-05-16T02:12:38;14.25;;;6.50;;
38591;SDS011;24356;48.460;11.450;2023-05-16T02:15:03;7.85;;;6.25;;
38591;SDS011;24356;48.460;11.450;2023-05-16T02:17:30;8.90;;;6.63;;
38591;SDS011;24356;48.460;11.450;2023-05-16T02:19:55;12.52;;;8.00;;
38591;SDS011;24356;48.460;11.450;2023-05-16T02:22:23;8.43;;;6.45;;
38591;SDS011;24356;48.460;11.450;2023-05-16T02:24:49;9.57;;;6.95;;
38591;SDS011;24356;48.460;11.450;2023-05-16T02:27:14;9.48;;;6.38;;
38591;SDS011;24356;48.460;11.450;2023-05-16T02:29:40;11.25;;;7.40;;
38591;SDS011;24356;48.460;11.450;2023-05-16T02:32:06;12.45;;;6.90;;
38591;SDS011;24356;48.460;11.450;2023-05-16T02:34:31;7.85;;;6.40;;
38591;SDS011;24356;48.460;11.450;2023-05-16T02:36:57;13.32;;;8.48;;
38591;SDS011;24356;48.460;11.450;2023-05-16T02:39:22;11.15;;;6.93;;
38591;SDS011;24356;48.460;11.450;2023-05-16T02:41:48;9.20;;;6.97;;
38591;SDS011;24356;48.460;11.450;2023-05-16T02:44:14;11.95;;;7.53;;
38591;SDS011;24356;48.460;11.450;2023-05-16T02:46:40;11.27;;;6.82;;
38591;SDS011;24356;48.460;11.450;2023-05-16T02:49:05;9.88;;;6.13;;
38591;SDS011;24356;48.460;11.450;2023-05-16T02:51:31;10.98;;;8.23;;
38591;SDS011;24356;48.460;11.450;2023-05-16T02:53:57;9.75;;;7.10;;
38591;SDS011;24356;48.460;11.450;2023-05-16T02:56:23;9.32;;;6.60;;
38591;SDS011;24356;48.460;11.450;2023-05-16T02:58:50;12.48;;;7.65;;
38591;SDS011;24356;48.460;11.450;2023-05-16T03:01:17;15.13;;;7.65;;
38591;SDS011;24356;48.460;11.450;2023-05-16T03:03:43;10.35;;;7.93;;
38591;SDS011;24356;48.460;11.450;2023-05-16T03:06:09;10.13;;;7.53;;
38591;SDS011;24356;48.460;11.450;2023-05-16T03:08:34;13.63;;;8.65;;
38591;SDS011;24356;48.460;11.450;2023-05-16T03:11:00;10.90;;;7.20;;
38591;SDS011;24356;48.460;11.450;2023-05-16T03:13:26;9.82;;;7.63;;
38591;SDS011;24356;48.460;11.450;2023-05-16T03:15:54;11.85;;;7.22;;
38591;SDS011;24356;48.460;11.450;2023-05-16T03:18:20;11.43;;;7.25;;
38591;SDS011;24356;48.460;11.450;2023-05-16T03:20:45;14.80;;;8.20;;
38591;SDS011;24356;48.460;11.450;2023-05-16T03:23:11;12.20;;;7.93;;
38591;SDS011;24356;48.460;11.450;2023-05-16T03:25:37;9.88;;;7.63;;
38591;SDS011;24356;48.460;11.450;2023-05-16T03:28:06;9.05;;;6.75;;
38591;SDS011;24356;48.460;11.450;2023-05-16T03:30:32;14.00;;;7.78;;
38591;SDS011;24356;48.460;11.450;2023-05-16T03:32:58;12.00;;;8.23;;
38591;SDS011;24356;48.460;11.450;2023-05-16T03:35:24;12.73;;;7.82;;
38591;SDS011;24356;48.460;11.450;2023-05-16T03:37:52;18.95;;;8.63;;
38591;SDS011;24356;48.460;11.450;2023-05-16T03:40:18;11.98;;;8.13;;
38591;SDS011;24356;48.460;11.450;2023-05-16T03:42:44;8.73;;;6.85;;
